createdAt,value
2022-08-23T13:23:09.667Z,1.00
2022-08-23T13:25:40.547Z,1.00
2022-08-23T13:28:21.964Z,1.00
2022-08-23T13:30:59.827Z,1.00
2022-08-23T13:33:28.122Z,1.00
2022-08-23T13:36:13.053Z,1.00
2022-08-23T13:38:42.026Z,1.00
2022-08-23T13:41:14.030Z,1.00
2022-08-23T13:43:48.192Z,1.00
2022-08-23T13:46:21.774Z,1.00
2022-08-23T13:48:53.532Z,1.00
2022-08-23T13:51:28.834Z,1.00
2022-08-23T13:53:58.095Z,1.00
2022-08-23T13:56:27.978Z,1.00
2022-08-23T13:58:58.202Z,1.00
2022-08-23T14:01:26.437Z,1.00
2022-08-23T14:03:54.853Z,1.00
2022-08-23T14:06:23.968Z,1.00
2022-08-23T14:08:52.326Z,1.00
2022-08-23T14:11:20.666Z,1.00
2022-08-23T14:13:50.234Z,1.00
2022-08-23T14:16:39.827Z,1.00
2022-08-23T14:19:19.194Z,1.00
2022-08-23T14:21:58.509Z,1.00
2022-08-23T14:24:27.211Z,1.00
2022-08-23T14:26:55.816Z,1.00
2022-08-23T14:29:27.850Z,1.00
2022-08-23T14:31:56.271Z,1.00
2022-08-23T14:34:24.547Z,1.00
2022-08-23T14:39:42.031Z,1.00
2022-08-23T14:42:10.501Z,1.00
2022-08-23T14:44:40.084Z,1.00
2022-08-23T14:47:08.304Z,1.00
2022-08-23T14:49:36.796Z,1.00
2022-08-23T14:52:05.387Z,1.00
2022-08-23T14:54:33.812Z,1.00
2022-08-23T15:01:10.365Z,1.00
2022-08-23T15:03:41.830Z,1.00
2022-08-23T15:06:10.219Z,1.00
2022-08-23T15:08:38.535Z,1.00
2022-08-23T15:14:00.000Z,1.00
2022-08-23T15:16:30.071Z,1.00
2022-08-23T15:18:58.362Z,1.00
2022-08-23T15:21:27.008Z,1.00
2022-08-23T15:23:55.159Z,1.00
2022-08-23T15:26:26.201Z,1.00
2022-08-23T15:28:54.428Z,1.00
2022-08-23T15:31:22.749Z,1.00
2022-08-23T15:33:52.248Z,1.00
2022-08-23T15:36:20.482Z,1.00
2022-08-23T15:38:49.109Z,1.00
2022-08-23T15:41:18.592Z,1.00
2022-08-23T15:43:46.982Z,1.00
2022-08-23T15:46:19.685Z,1.00
2022-08-23T15:48:50.085Z,1.00
2022-08-23T15:51:19.793Z,1.00
2022-08-23T15:53:48.072Z,1.00
2022-08-23T15:56:21.049Z,1.00
2022-08-23T15:58:49.371Z,1.00
2022-08-23T16:01:20.785Z,1.00
2022-08-23T16:03:52.456Z,1.00
2022-08-23T16:06:22.086Z,1.00
2022-08-23T16:08:53.037Z,1.00
2022-08-23T16:11:21.621Z,1.00
2022-08-23T16:13:53.704Z,1.00
2022-08-23T16:16:25.378Z,1.00
2022-08-23T16:18:54.206Z,1.00
2022-08-23T16:21:25.258Z,1.00
2022-08-23T16:23:53.614Z,1.00
2022-08-23T16:26:34.828Z,1.00
2022-08-23T16:29:04.298Z,1.00
2022-08-23T16:31:38.652Z,1.00
2022-08-23T16:34:10.264Z,1.00
2022-08-23T16:36:40.144Z,1.00
2022-08-23T16:39:08.810Z,1.00
2022-08-23T16:41:37.036Z,1.00
2022-08-23T16:44:05.389Z,1.00
2022-08-23T16:46:33.607Z,1.00
2022-08-23T16:49:02.412Z,1.00
2022-08-23T16:51:30.769Z,1.00
2022-08-23T16:54:02.867Z,1.00
2022-08-23T16:56:31.866Z,1.00
2022-08-23T16:59:00.209Z,1.00
2022-08-23T17:01:28.785Z,1.00
2022-08-23T17:03:57.155Z,1.00
2022-08-23T17:06:25.378Z,1.00
2022-08-23T17:08:53.622Z,1.00
2022-08-23T17:11:23.616Z,1.00
2022-08-23T17:13:58.030Z,1.00
2022-08-23T17:16:33.447Z,1.00
2022-08-23T17:19:01.660Z,1.00
2022-08-23T17:21:29.989Z,1.00
2022-08-23T17:23:58.328Z,1.00
2022-08-23T17:26:27.920Z,1.00
2022-08-23T17:28:56.496Z,1.00
2022-08-23T17:31:24.808Z,1.00
2022-08-23T17:33:53.041Z,1.00
2022-08-23T17:36:30.080Z,1.00
2022-08-23T17:38:58.436Z,1.00
2022-08-23T17:41:28.364Z,1.00
2022-08-23T17:43:56.868Z,1.00
2022-08-23T17:46:25.109Z,1.00
2022-08-23T17:48:53.356Z,1.00
2022-08-23T17:51:21.548Z,1.00
2022-08-23T17:53:49.789Z,1.00
2022-08-23T17:56:17.987Z,1.00
2022-08-23T17:58:47.818Z,1.00
2022-08-23T18:01:16.151Z,1.00
2022-08-23T18:03:44.554Z,1.00
2022-08-23T18:06:17.267Z,1.00
2022-08-23T18:08:46.161Z,1.00
2022-08-23T18:11:14.653Z,1.00
2022-08-23T18:13:42.837Z,1.00
2022-08-23T18:16:12.454Z,1.00
2022-08-23T18:18:40.730Z,1.00
2022-08-23T18:21:09.578Z,1.00
2022-08-23T18:23:38.938Z,1.00
2022-08-23T18:26:07.976Z,1.00
2022-08-23T18:28:35.386Z,1.00
2022-08-23T18:31:03.786Z,1.00
2022-08-23T18:33:46.441Z,1.00
2022-08-23T18:36:15.969Z,1.00
2022-08-23T18:38:44.203Z,1.00
2022-08-23T18:41:13.634Z,1.00
2022-08-23T18:43:42.263Z,1.00
2022-08-23T18:46:10.776Z,1.00
2022-08-23T18:48:40.502Z,1.00
2022-08-23T18:51:10.841Z,1.00
2022-08-23T18:53:46.264Z,1.00
2022-08-23T18:56:14.485Z,1.00
2022-08-23T18:58:42.652Z,1.00
2022-08-23T19:01:22.664Z,1.00
2022-08-23T19:03:52.613Z,1.00
2022-08-23T19:06:20.921Z,1.00
2022-08-23T19:08:49.120Z,1.00
2022-08-23T19:11:17.450Z,1.00
2022-08-23T19:13:45.721Z,1.00
2022-08-23T19:16:14.172Z,1.00
2022-08-23T19:18:42.834Z,1.00
2022-08-23T19:21:14.330Z,1.00
2022-08-23T19:23:42.684Z,1.00
2022-08-23T19:26:11.063Z,1.00
2022-08-23T19:28:39.479Z,1.00
2022-08-23T19:31:08.343Z,1.00
2022-08-23T19:33:36.819Z,1.00
2022-08-23T19:36:06.029Z,1.00
2022-08-23T19:38:35.665Z,1.00
2022-08-23T21:56:27.879Z,1.00
2022-08-23T21:58:59.286Z,1.00
2022-08-23T22:01:27.652Z,1.00
2022-08-23T22:03:57.250Z,1.00
2022-08-23T22:06:27.381Z,1.00
2022-08-23T22:08:55.652Z,1.00
2022-08-23T22:11:24.257Z,1.00
2022-08-23T22:13:53.788Z,1.00
2022-08-23T22:16:22.432Z,1.00
2022-08-23T22:18:50.747Z,1.00
2022-08-23T22:21:18.919Z,1.00
2022-08-23T22:23:48.408Z,1.00
2022-08-23T22:26:16.641Z,1.00
2022-08-23T22:28:45.075Z,1.00
2022-08-23T22:31:14.911Z,1.00
2022-08-23T22:33:43.847Z,1.00
2022-08-23T22:36:16.531Z,1.00
2022-08-23T22:38:45.518Z,1.00
2022-08-23T22:41:18.069Z,1.00
2022-08-23T22:43:46.967Z,1.00
2022-08-23T22:46:15.264Z,1.00
2022-08-23T22:48:43.744Z,1.00
2022-08-23T22:51:15.172Z,1.00
2022-08-23T22:53:45.454Z,1.00
2022-08-23T22:56:15.308Z,1.00
2022-08-23T22:58:45.353Z,1.00
2022-08-23T23:01:20.076Z,1.00
2022-08-23T23:03:49.371Z,1.00
2022-08-23T23:06:19.633Z,1.00
2022-08-23T23:08:47.889Z,1.00
2022-08-23T23:11:16.502Z,1.00
2022-08-23T23:13:46.105Z,1.00
2022-08-23T23:16:15.769Z,2.00
2022-08-23T23:19:04.426Z,1.90
2022-08-23T23:21:34.056Z,2.20
2022-08-23T23:24:02.354Z,3.10
2022-08-23T23:26:30.678Z,3.90
2022-08-23T23:29:00.379Z,4.40
2022-08-23T23:31:28.761Z,5.00
2022-08-23T23:33:57.005Z,5.20
2022-08-23T23:36:25.315Z,5.20
2022-08-23T23:38:53.598Z,5.30
2022-08-23T23:41:21.758Z,6.00
2022-08-23T23:43:50.161Z,6.60
2022-08-23T23:46:20.660Z,7.00
2022-08-23T23:48:50.154Z,7.00
2022-08-23T23:51:21.110Z,7.50
2022-08-23T23:53:49.304Z,7.50
2022-08-23T23:56:17.660Z,7.80
2022-08-23T23:58:46.113Z,8.00
